createdAt,value
2023-03-06T00:00:27.234Z,17.73
2023-03-06T00:02:53.846Z,16.38
2023-03-06T00:05:20.319Z,16.55
2023-03-06T00:07:46.989Z,16.98
2023-03-06T00:10:16.079Z,17.90
2023-03-06T00:12:42.569Z,16.63
2023-03-06T00:15:09.846Z,17.58
2023-03-06T00:17:36.618Z,16.60
2023-03-06T00:20:04.684Z,16.38
2023-03-06T00:22:31.196Z,16.17
2023-03-06T00:24:57.568Z,18.48
2023-03-06T00:27:26.108Z,17.00
2023-03-06T00:29:57.363Z,18.17
2023-03-06T00:32:24.781Z,16.52
2023-03-06T00:34:54.546Z,17.63
2023-03-06T00:37:23.071Z,17.80
2023-03-06T00:39:49.830Z,16.90
2023-03-06T00:42:17.759Z,17.08
2023-03-06T00:44:44.538Z,16.55
2023-03-06T00:47:11.856Z,17.52
2023-03-06T00:49:38.432Z,17.15
2023-03-06T00:52:05.598Z,17.25
2023-03-06T00:54:31.950Z,16.50
2023-03-06T00:56:58.298Z,16.00
2023-03-06T00:59:24.618Z,17.92
2023-03-06T01:01:50.992Z,16.48
2023-03-06T01:04:17.400Z,15.70
2023-03-06T01:06:43.787Z,17.67
2023-03-06T01:09:10.199Z,16.80
2023-03-06T01:11:36.523Z,16.48
2023-03-06T01:14:03.192Z,17.88
2023-03-06T01:16:29.684Z,17.23
2023-03-06T01:18:56.559Z,17.10
2023-03-06T01:21:23.320Z,16.35
2023-03-06T01:23:49.662Z,15.60
2023-03-06T01:26:16.162Z,16.23
2023-03-06T01:28:42.533Z,17.38
2023-03-06T01:31:10.129Z,17.65
2023-03-06T01:33:36.802Z,17.63
2023-03-06T01:36:06.025Z,17.05
2023-03-06T01:38:32.616Z,17.77
2023-03-06T01:40:59.360Z,18.10
2023-03-06T01:43:27.094Z,18.60
2023-03-06T01:46:31.242Z,17.42
2023-03-06T01:49:03.273Z,15.77
2023-03-06T01:51:38.253Z,16.25
2023-03-06T01:54:08.678Z,16.48
2023-03-06T01:56:35.539Z,15.52
2023-03-06T01:59:02.462Z,18.10
2023-03-06T02:01:30.562Z,16.48
2023-03-06T02:03:56.940Z,17.42
2023-03-06T02:06:23.338Z,19.45
2023-03-06T02:08:52.149Z,16.73
2023-03-06T02:11:21.716Z,17.05
2023-03-06T02:13:50.110Z,16.75
2023-03-06T02:16:17.631Z,17.13
2023-03-06T02:18:45.563Z,17.33
2023-03-06T02:21:20.233Z,16.52
2023-03-06T02:24:10.957Z,16.40
2023-03-06T02:26:38.075Z,16.33
2023-03-06T02:29:05.270Z,16.17
2023-03-06T02:31:33.355Z,15.20
2023-03-06T02:34:15.043Z,17.33
2023-03-06T02:36:47.411Z,16.20
2023-03-06T02:39:16.861Z,15.93
2023-03-06T02:41:43.257Z,15.65
2023-03-06T02:44:09.726Z,15.07
2023-03-06T02:46:38.571Z,15.35
2023-03-06T02:49:04.929Z,15.85
2023-03-06T02:51:31.234Z,18.05
2023-03-06T02:53:57.665Z,16.92
2023-03-06T02:56:24.050Z,15.98
2023-03-06T02:58:50.347Z,15.50
2023-03-06T03:01:16.741Z,15.68
2023-03-06T03:03:43.572Z,14.90
2023-03-06T03:06:10.237Z,13.52
2023-03-06T03:08:37.987Z,13.38
2023-03-06T03:11:05.164Z,14.02
2023-03-06T03:13:32.783Z,14.38
2023-03-06T03:16:01.575Z,12.75
2023-03-06T03:18:28.453Z,15.20
2023-03-06T03:20:55.500Z,14.80
2023-03-06T03:23:22.255Z,15.93
2023-03-06T03:25:48.573Z,13.02
2023-03-06T03:28:14.990Z,12.88
2023-03-06T03:30:42.230Z,15.02
2023-03-06T03:33:08.761Z,14.20
2023-03-06T03:35:35.539Z,14.25
2023-03-06T03:38:02.113Z,13.82
2023-03-06T03:40:28.802Z,14.52
2023-03-06T03:42:55.102Z,14.23
2023-03-06T03:45:22.117Z,12.88
2023-03-06T03:47:48.443Z,14.95
2023-03-06T03:50:14.753Z,12.65
2023-03-06T03:52:41.039Z,12.07
2023-03-06T03:55:08.060Z,11.20
2023-03-06T03:57:34.384Z,11.02
2023-03-06T04:00:00.804Z,12.98
2023-03-06T04:02:27.125Z,13.02
2023-03-06T04:04:53.620Z,11.45
2023-03-06T04:07:20.014Z,12.52
2023-03-06T04:09:46.360Z,12.48
2023-03-06T04:12:12.644Z,11.60
2023-03-06T04:14:38.955Z,11.55
2023-03-06T04:17:05.541Z,12.38
2023-03-06T04:19:31.854Z,14.13
2023-03-06T04:21:58.342Z,14.02
2023-03-06T04:24:25.157Z,13.25
2023-03-06T04:26:51.526Z,12.73
2023-03-06T04:29:17.862Z,12.45
2023-03-06T04:31:44.333Z,12.38
2023-03-06T04:34:10.803Z,12.93
2023-03-06T04:36:37.390Z,12.75
2023-03-06T04:39:04.957Z,11.93
2023-03-06T04:41:31.319Z,12.98
2023-03-06T04:43:57.815Z,11.98
2023-03-06T04:46:24.701Z,13.70
2023-03-06T04:48:51.196Z,16.58
2023-03-06T04:51:17.566Z,14.70
2023-03-06T04:53:44.081Z,13.82
2023-03-06T04:56:10.950Z,12.43
2023-03-06T04:58:37.382Z,12.13
2023-03-06T05:01:04.014Z,14.27
2023-03-06T05:03:31.033Z,12.60
2023-03-06T05:05:58.300Z,12.18
2023-03-06T05:08:24.749Z,12.85
2023-03-06T05:10:59.857Z,13.50
2023-03-06T05:13:27.197Z,12.15
2023-03-06T05:15:54.006Z,12.98
2023-03-06T05:18:21.294Z,13.45
2023-03-06T05:20:47.671Z,12.75
2023-03-06T05:23:14.084Z,14.00
2023-03-06T05:25:40.841Z,12.57
2023-03-06T05:28:07.839Z,12.68
2023-03-06T05:30:35.048Z,13.25
2023-03-06T05:33:01.867Z,13.07
2023-03-06T05:35:28.425Z,14.15
2023-03-06T05:37:54.927Z,12.18
2023-03-06T05:40:21.622Z,10.82
2023-03-06T05:42:47.974Z,11.23
2023-03-06T05:45:14.556Z,11.60
2023-03-06T05:47:41.044Z,11.65
2023-03-06T05:50:08.277Z,11.18
2023-03-06T05:52:35.083Z,11.10
2023-03-06T05:55:01.657Z,11.80
2023-03-06T05:57:28.022Z,11.73
2023-03-06T05:59:56.153Z,11.38
2023-03-06T06:02:22.629Z,10.65
2023-03-06T06:04:49.163Z,11.23
2023-03-06T06:07:16.816Z,10.98
2023-03-06T06:09:47.548Z,11.10
2023-03-06T06:12:15.439Z,11.65
2023-03-06T06:14:44.601Z,11.70
2023-03-06T06:17:12.455Z,11.50
2023-03-06T06:19:39.121Z,12.50
2023-03-06T06:22:05.733Z,13.80
2023-03-06T06:24:32.264Z,13.57
2023-03-06T06:27:04.232Z,13.85
2023-03-06T06:29:33.243Z,29.65
2023-03-06T06:32:00.159Z,13.07
2023-03-06T06:34:27.335Z,13.85
2023-03-06T06:36:54.434Z,12.10
2023-03-06T06:39:22.724Z,12.75
2023-03-06T06:42:03.007Z,12.18
2023-03-06T06:44:37.421Z,15.65
2023-03-06T06:47:23.671Z,12.55
2023-03-06T06:49:55.515Z,11.07
2023-03-06T06:52:24.240Z,11.98
2023-03-06T06:54:51.650Z,11.48
2023-03-06T06:57:18.401Z,13.15
2023-03-06T06:59:44.943Z,14.70
2023-03-06T07:02:12.926Z,12.63
2023-03-06T07:04:49.267Z,13.35
2023-03-06T07:07:26.681Z,12.88
2023-03-06T07:09:55.446Z,13.80
2023-03-06T07:12:21.880Z,13.43
2023-03-06T07:14:50.474Z,11.70
2023-03-06T07:17:19.724Z,13.20
2023-03-06T07:19:46.348Z,12.63
2023-03-06T07:22:13.428Z,12.73
2023-03-06T07:24:40.060Z,11.68
2023-03-06T07:27:06.665Z,13.25
2023-03-06T07:29:34.482Z,13.13
2023-03-06T07:32:01.053Z,14.48
2023-03-06T07:34:28.001Z,13.80
2023-03-06T07:36:54.567Z,15.23
2023-03-06T07:39:21.134Z,14.18
2023-03-06T07:41:47.615Z,13.60
2023-03-06T07:44:14.180Z,15.45
2023-03-06T07:46:40.659Z,13.50
2023-03-06T07:49:06.981Z,13.68
2023-03-06T07:51:33.559Z,12.05
2023-03-06T07:54:03.205Z,13.05
2023-03-06T07:56:29.775Z,12.15
2023-03-06T07:58:57.153Z,13.02
2023-03-06T08:01:24.246Z,13.05
2023-03-06T08:03:51.574Z,13.50
2023-03-06T08:06:24.395Z,13.05
2023-03-06T08:08:52.345Z,12.73
2023-03-06T08:11:21.413Z,13.13
2023-03-06T08:13:48.796Z,12.90
2023-03-06T08:16:17.241Z,12.73
2023-03-06T08:18:45.820Z,14.23
2023-03-06T08:21:18.257Z,26.65
2023-03-06T08:23:45.288Z,24.33
2023-03-06T08:26:14.799Z,22.38
2023-03-06T08:28:41.386Z,19.02
2023-03-06T08:31:11.454Z,14.45
2023-03-06T08:33:39.103Z,13.63
2023-03-06T08:36:05.717Z,15.52
2023-03-06T08:38:34.599Z,13.88
2023-03-06T08:41:01.158Z,15.27
2023-03-06T08:43:27.626Z,13.60
2023-03-06T08:45:55.758Z,14.70
2023-03-06T08:48:22.259Z,14.65
2023-03-06T08:50:49.115Z,17.52
2023-03-06T08:53:17.378Z,14.80
2023-03-06T08:55:44.007Z,15.10
2023-03-06T08:58:10.471Z,14.32
2023-03-06T09:00:39.560Z,12.90
2023-03-06T09:03:09.328Z,12.93
2023-03-06T09:05:35.924Z,13.50
2023-03-06T09:08:02.689Z,12.30
2023-03-06T09:10:29.370Z,12.27
2023-03-06T09:12:56.271Z,13.48
2023-03-06T09:15:23.800Z,14.32
2023-03-06T09:17:51.303Z,13.43
2023-03-06T09:20:18.983Z,14.00
2023-03-06T09:22:48.571Z,12.95
2023-03-06T09:25:20.258Z,13.00
2023-03-06T09:27:55.424Z,12.02
2023-03-06T09:30:28.669Z,13.35
2023-03-06T09:32:55.129Z,13.45
2023-03-06T09:35:21.500Z,12.90
2023-03-06T09:37:47.933Z,11.80
2023-03-06T09:40:30.746Z,12.52
2023-03-06T09:42:57.130Z,13.00
2023-03-06T09:45:23.562Z,12.10
2023-03-06T09:48:04.739Z,10.95
2023-03-06T09:50:55.001Z,11.02
2023-03-06T09:53:47.198Z,11.23
2023-03-06T09:56:17.865Z,11.57
2023-03-06T09:58:50.510Z,11.63
2023-03-06T10:01:27.561Z,10.80
2023-03-06T10:04:30.804Z,12.10
2023-03-06T10:07:02.222Z,11.20
2023-03-06T10:09:40.100Z,11.48
2023-03-06T10:12:22.973Z,10.80
2023-03-06T10:15:01.896Z,11.45
2023-03-06T10:17:35.272Z,10.70
2023-03-06T10:20:10.743Z,11.55
2023-03-06T10:22:46.144Z,12.40
2023-03-06T10:25:30.629Z,10.80
2023-03-06T10:28:05.549Z,11.25
2023-03-06T10:30:43.730Z,10.82
2023-03-06T10:33:28.478Z,11.48
2023-03-06T10:35:56.335Z,11.35
2023-03-06T10:38:27.567Z,11.55
2023-03-06T10:41:14.284Z,12.38
2023-03-06T10:43:43.778Z,12.63
2023-03-06T10:46:12.817Z,12.23
2023-03-06T10:48:42.310Z,11.05
2023-03-06T10:51:24.022Z,11.88
2023-03-06T10:54:13.624Z,11.70
2023-03-06T10:56:42.386Z,12.25
2023-03-06T10:59:19.204Z,11.20
2023-03-06T11:02:23.837Z,12.98
2023-03-06T11:04:52.845Z,12.52
2023-03-06T11:07:21.112Z,12.77
2023-03-06T11:09:57.088Z,11.05
2023-03-06T11:12:37.286Z,12.23
2023-03-06T11:15:07.692Z,12.48
2023-03-06T11:17:52.405Z,10.90
2023-03-06T11:20:38.409Z,13.07
2023-03-06T11:23:37.209Z,13.13
2023-03-06T11:26:15.739Z,12.63
2023-03-06T11:29:12.876Z,14.27
2023-03-06T11:32:20.217Z,13.50
2023-03-06T11:34:54.649Z,10.85
2023-03-06T11:37:46.392Z,11.07
2023-03-06T11:40:19.097Z,10.63
2023-03-06T11:43:14.409Z,12.00
2023-03-06T11:46:17.491Z,13.20
2023-03-06T11:48:52.068Z,12.63
2023-03-06T11:51:22.693Z,13.25
2023-03-06T11:53:49.278Z,13.18
2023-03-06T11:56:40.062Z,13.00
2023-03-06T11:59:21.068Z,12.68
2023-03-06T12:02:05.853Z,12.35
2023-03-06T12:04:55.243Z,14.05
2023-03-06T12:07:54.307Z,12.25
2023-03-06T12:10:31.748Z,11.77
2023-03-06T12:13:13.611Z,11.10
2023-03-06T12:15:56.643Z,12.43
2023-03-06T12:18:50.583Z,10.60
2023-03-06T12:21:28.813Z,10.07
2023-03-06T12:24:27.008Z,10.68
2023-03-06T12:27:17.520Z,9.45
2023-03-06T12:30:02.120Z,10.13
2023-03-06T12:32:37.176Z,9.07
2023-03-06T12:35:06.800Z,9.88
2023-03-06T12:37:49.840Z,9.35
2023-03-06T12:40:26.107Z,9.80
2023-03-06T12:43:10.273Z,10.98
2023-03-06T12:45:38.052Z,11.40
2023-03-06T12:48:15.028Z,10.70
2023-03-06T12:50:45.129Z,10.93
2023-03-06T12:53:26.299Z,11.98
2023-03-06T12:55:53.938Z,11.30
2023-03-06T12:58:44.830Z,11.55
2023-03-06T13:01:41.313Z,10.57
2023-03-06T13:04:52.628Z,10.25
2023-03-06T13:07:33.881Z,10.90
2023-03-06T13:10:08.020Z,10.68
2023-03-06T13:12:58.177Z,10.18
2023-03-06T13:15:27.469Z,8.75
2023-03-06T13:20:29.367Z,8.80
2023-03-06T13:22:56.265Z,8.95
2023-03-06T13:25:22.637Z,8.75
2023-03-06T13:27:51.953Z,8.63
2023-03-06T13:30:43.560Z,8.00
2023-03-06T13:35:58.182Z,6.90
2023-03-06T13:38:33.075Z,6.72
2023-03-06T13:41:42.646Z,6.57
2023-03-06T13:44:24.172Z,5.72
2023-03-06T13:47:55.734Z,6.15
2023-03-06T13:50:28.511Z,5.30
2023-03-06T13:53:26.523Z,5.30
2023-03-06T13:56:12.870Z,5.45
2023-03-06T13:59:03.749Z,4.70
2023-03-06T14:01:51.785Z,5.20
2023-03-06T14:04:39.842Z,4.93
2023-03-06T14:07:41.433Z,4.88
2023-03-06T14:10:22.445Z,5.15
2023-03-06T14:12:48.950Z,4.95
2023-03-06T14:15:22.344Z,5.10
2023-03-06T14:18:11.895Z,6.07
2023-03-06T14:20:44.620Z,6.70
2023-03-06T14:23:30.413Z,6.40
2023-03-06T14:26:02.742Z,6.90
2023-03-06T14:28:31.685Z,7.80
2023-03-06T14:31:08.014Z,8.50
2023-03-06T14:33:40.880Z,8.65
2023-03-06T14:36:12.724Z,8.30
2023-03-06T14:38:45.377Z,8.90
2023-03-06T14:41:15.614Z,8.35
2023-03-06T14:43:42.251Z,8.98
2023-03-06T14:46:19.938Z,8.75
2023-03-06T14:48:48.225Z,8.90
2023-03-06T14:51:19.225Z,8.90
2023-03-06T14:53:49.035Z,9.25
2023-03-06T14:56:24.989Z,9.13
2023-03-06T14:58:55.021Z,10.27
2023-03-06T15:01:27.810Z,9.57
2023-03-06T15:03:59.404Z,8.75
2023-03-06T15:06:33.367Z,8.95
2023-03-06T15:09:08.185Z,9.40
2023-03-06T15:12:22.648Z,9.10
2023-03-06T15:14:59.767Z,9.48
2023-03-06T15:17:44.991Z,9.05
2023-03-06T15:20:37.901Z,9.30
2023-03-06T15:23:18.452Z,10.27
2023-03-06T15:26:04.498Z,9.35
2023-03-06T15:28:39.459Z,9.15
2023-03-06T15:31:40.120Z,10.02
2023-03-06T15:34:06.607Z,11.10
2023-03-06T15:36:36.002Z,10.57
2023-03-06T15:39:30.133Z,10.20
2023-03-06T15:41:58.955Z,10.30
2023-03-06T15:44:26.268Z,11.43
2023-03-06T15:47:06.635Z,9.82
2023-03-06T15:49:37.925Z,9.95
2023-03-06T15:52:08.543Z,9.77
2023-03-06T15:54:36.116Z,10.70
2023-03-06T15:57:12.195Z,11.20
2023-03-06T16:02:16.628Z,11.27
2023-03-06T16:04:44.094Z,11.10
2023-03-06T16:07:11.447Z,10.88
2023-03-06T16:09:38.071Z,12.82
2023-03-06T16:12:06.016Z,12.75
2023-03-06T16:14:32.524Z,12.30
2023-03-06T16:16:59.515Z,12.75
2023-03-06T16:19:27.565Z,12.18
2023-03-06T16:21:55.905Z,12.15
2023-03-06T16:24:22.469Z,12.05
2023-03-06T16:26:51.108Z,11.25
2023-03-06T16:29:20.161Z,12.10
2023-03-06T16:31:50.054Z,12.77
2023-03-06T16:34:19.696Z,12.38
2023-03-06T16:36:48.278Z,12.95
2023-03-06T16:39:16.677Z,12.25
2023-03-06T16:41:46.071Z,11.40
2023-03-06T16:44:16.765Z,11.63
2023-03-06T16:46:45.851Z,11.05
2023-03-06T16:49:24.193Z,12.80
2023-03-06T16:51:51.658Z,12.23
2023-03-06T16:54:20.301Z,12.52
2023-03-06T16:56:46.694Z,12.00
2023-03-06T16:59:13.376Z,11.77
2023-03-06T17:01:44.257Z,11.73
2023-03-06T17:04:11.161Z,12.07
2023-03-06T17:06:38.417Z,11.75
2023-03-06T17:09:04.965Z,13.75
2023-03-06T17:11:31.621Z,10.98
2023-03-06T17:14:03.961Z,12.13
2023-03-06T17:16:30.502Z,12.82
2023-03-06T17:18:58.280Z,12.23
2023-03-06T17:21:26.936Z,12.35
2023-03-06T17:23:53.391Z,11.75
2023-03-06T17:26:23.002Z,12.38
2023-03-06T17:28:49.673Z,11.65
2023-03-06T17:31:18.489Z,11.40
2023-03-06T17:33:45.525Z,11.20
2023-03-06T17:36:14.300Z,10.82
2023-03-06T17:38:41.313Z,12.38
2023-03-06T17:41:09.419Z,13.57
2023-03-06T17:43:37.023Z,11.55
2023-03-06T17:46:05.493Z,12.13
2023-03-06T17:48:32.161Z,12.90
2023-03-06T17:50:59.054Z,12.88
2023-03-06T17:53:25.759Z,14.73
2023-03-06T17:55:52.269Z,12.57
2023-03-06T17:58:18.971Z,12.52
2023-03-06T18:00:45.830Z,14.57
2023-03-06T18:03:12.511Z,12.15
2023-03-06T18:05:39.036Z,12.55
2023-03-06T18:08:08.111Z,11.80
2023-03-06T18:10:34.695Z,15.13
2023-03-06T18:13:01.199Z,13.90
2023-03-06T18:15:27.851Z,13.05
2023-03-06T18:17:56.366Z,14.80
2023-03-06T18:20:23.002Z,14.07
2023-03-06T18:22:49.364Z,13.43
2023-03-06T18:25:18.496Z,13.40
2023-03-06T18:27:47.271Z,14.68
2023-03-06T18:30:14.395Z,15.95
2023-03-06T18:32:40.796Z,14.60
2023-03-06T18:35:09.830Z,14.23
2023-03-06T18:37:37.336Z,13.35
2023-03-06T18:40:03.955Z,12.10
2023-03-06T18:42:30.320Z,12.90
2023-03-06T18:44:57.468Z,11.65
2023-03-06T18:47:23.906Z,11.35
2023-03-06T18:49:50.286Z,12.13
2023-03-06T18:52:17.402Z,14.40
2023-03-06T18:54:44.695Z,11.88
2023-03-06T18:57:11.291Z,12.43
2023-03-06T18:59:38.000Z,11.82
2023-03-06T19:02:04.462Z,11.85
2023-03-06T19:04:30.854Z,12.18
2023-03-06T19:06:57.320Z,11.93
2023-03-06T19:09:23.780Z,12.57
2023-03-06T19:11:50.212Z,12.27
2023-03-06T19:14:16.661Z,12.70
2023-03-06T19:16:43.240Z,12.07
2023-03-06T19:19:09.738Z,12.30
2023-03-06T19:21:38.911Z,11.82
2023-03-06T19:24:07.360Z,12.07
2023-03-06T19:26:33.723Z,13.10
2023-03-06T19:29:02.549Z,12.82
2023-03-06T19:31:29.535Z,13.13
2023-03-06T19:33:59.276Z,11.65
2023-03-06T19:36:33.294Z,12.73
2023-03-06T19:39:07.903Z,14.05
2023-03-06T19:41:35.462Z,11.23
2023-03-06T19:44:03.198Z,12.20
2023-03-06T19:46:32.491Z,11.85
2023-03-06T19:49:01.925Z,12.07
2023-03-06T19:51:29.058Z,12.35
2023-03-06T19:53:56.886Z,12.38
2023-03-06T19:56:26.876Z,12.80
2023-03-06T19:58:53.648Z,14.23
2023-03-06T20:01:21.735Z,12.60
2023-03-06T20:03:53.103Z,13.30
2023-03-06T20:06:20.189Z,12.60
2023-03-06T20:08:47.342Z,13.82
2023-03-06T20:11:23.030Z,12.90
2023-03-06T20:13:50.120Z,12.38
2023-03-06T20:16:17.599Z,13.52
2023-03-06T20:18:46.628Z,13.70
2023-03-06T20:21:13.955Z,12.88
2023-03-06T20:23:43.248Z,12.90
2023-03-06T20:26:12.362Z,13.77
2023-03-06T20:28:40.362Z,12.13
2023-03-06T20:31:20.625Z,12.73
2023-03-06T20:33:49.902Z,11.30
2023-03-06T20:36:24.605Z,11.65
2023-03-06T20:38:53.149Z,11.98
2023-03-06T20:41:22.730Z,12.68
2023-03-06T20:46:19.032Z,12.32
2023-03-06T20:48:53.372Z,12.57
2023-03-06T20:51:25.658Z,12.18
2023-03-06T20:53:55.600Z,12.57
2023-03-06T20:56:27.756Z,11.13
2023-03-06T20:58:54.146Z,14.07
2023-03-06T21:01:22.990Z,11.23
2023-03-06T21:03:49.638Z,12.77
2023-03-06T21:06:16.666Z,12.68
2023-03-06T21:08:43.521Z,12.63
2023-03-06T21:11:10.025Z,12.68
2023-03-06T21:13:36.458Z,11.57
2023-03-06T21:16:07.724Z,12.38
2023-03-06T21:18:34.207Z,13.00
2023-03-06T21:21:05.360Z,11.27
2023-03-06T21:23:34.111Z,12.40
2023-03-06T21:26:00.815Z,12.60
2023-03-06T21:28:27.542Z,13.35
2023-03-06T21:30:54.653Z,13.57
2023-03-06T21:33:21.060Z,13.25
2023-03-06T21:35:47.961Z,12.07
2023-03-06T21:38:14.525Z,11.43
2023-03-06T21:40:41.322Z,12.30
2023-03-06T21:43:08.746Z,13.38
2023-03-06T21:45:35.441Z,13.48
2023-03-06T21:48:02.008Z,12.20
2023-03-06T21:50:28.569Z,13.57
2023-03-06T21:52:56.274Z,14.30
2023-03-06T21:55:23.049Z,12.98
2023-03-06T21:57:50.836Z,11.93
2023-03-06T22:00:18.255Z,14.38
2023-03-06T22:02:45.524Z,13.48
2023-03-06T22:05:12.418Z,14.73
2023-03-06T22:07:39.537Z,14.20
2023-03-06T22:10:09.183Z,14.68
2023-03-06T22:15:06.606Z,14.35
2023-03-06T22:17:33.128Z,15.32
2023-03-06T22:19:59.709Z,16.08
2023-03-06T22:22:26.149Z,15.30
2023-03-06T22:24:52.544Z,15.27
2023-03-06T22:27:18.909Z,14.98
2023-03-06T22:29:45.653Z,15.90
2023-03-06T22:32:12.223Z,16.15
2023-03-06T22:34:38.866Z,16.02
2023-03-06T22:37:05.192Z,14.85
2023-03-06T22:39:31.745Z,15.95
2023-03-06T22:41:58.139Z,15.68
2023-03-06T22:44:24.582Z,15.20
2023-03-06T22:46:53.472Z,16.33
2023-03-06T22:49:19.996Z,15.55
2023-03-06T22:51:46.706Z,16.17
2023-03-06T22:54:13.112Z,16.30
2023-03-06T22:56:39.544Z,16.20
2023-03-06T22:59:05.922Z,16.15
2023-03-06T23:01:33.837Z,15.10
2023-03-06T23:04:02.921Z,15.43
2023-03-06T23:06:31.681Z,15.70
2023-03-06T23:09:01.781Z,15.80
2023-03-06T23:11:29.972Z,14.57
2023-03-06T23:13:56.986Z,15.40
2023-03-06T23:16:23.980Z,14.95
2023-03-06T23:18:52.794Z,15.32
2023-03-06T23:21:21.219Z,15.20
2023-03-06T23:23:49.475Z,15.10
2023-03-06T23:26:17.630Z,16.25
2023-03-06T23:28:44.533Z,16.52
2023-03-06T23:31:13.931Z,16.67
2023-03-06T23:33:40.581Z,16.90
2023-03-06T23:36:09.900Z,17.10
2023-03-06T23:38:37.492Z,15.85
2023-03-06T23:41:15.932Z,16.23
2023-03-06T23:43:42.422Z,14.77
2023-03-06T23:46:09.014Z,16.02
2023-03-06T23:48:38.078Z,15.05
2023-03-06T23:51:09.320Z,14.02
2023-03-06T23:53:35.893Z,15.52
2023-03-06T23:56:06.094Z,14.52
2023-03-06T23:58:33.143Z,15.15
